sensor_id;sensor_type;location;lat;lon;timestamp;P1;durP1;ratioP1;P2;durP2;ratioP2
43996;SDS011;34318;45.818;15.964;2023-12-14T00:01:13;8.88;;;5.93;;
43996;SDS011;34318;45.818;15.964;2023-12-14T00:03:41;7.57;;;5.78;;
43996;SDS011;34318;45.818;15.964;2023-12-14T00:06:11;8.30;;;5.60;;
43996;SDS011;34318;45.818;15.964;2023-12-14T00:08:38;8.15;;;5.70;;
43996;SDS011;34318;45.818;15.964;2023-12-14T00:11:06;8.07;;;5.75;;
43996;SDS011;34318;45.818;15.964;2023-12-14T00:13:34;7.20;;;4.78;;
43996;SDS011;34318;45.818;15.964;2023-12-14T00:16:01;6.80;;;5.05;;
43996;SDS011;34318;45.818;15.964;2023-12-14T00:18:29;6.40;;;5.53;;
43996;SDS011;34318;45.818;15.964;2023-12-14T00:20:56;6.65;;;5.32;;
43996;SDS011;34318;45.818;15.964;2023-12-14T00:23:24;6.57;;;5.03;;
43996;SDS011;34318;45.818;15.964;2023-12-14T00:25:51;7.15;;;5.30;;
43996;SDS011;34318;45.818;15.964;2023-12-14T00:28:18;8.18;;;5.28;;
43996;SDS011;34318;45.818;15.964;2023-12-14T00:30:45;6.15;;;5.40;;
43996;SDS011;34318;45.818;15.964;2023-12-14T00:33:17;19.67;;;5.30;;
43996;SDS011;34318;45.818;15.964;2023-12-14T00:35:44;9.07;;;5.40;;
43996;SDS011;34318;45.818;15.964;2023-12-14T00:38:11;6.95;;;5.22;;
43996;SDS011;34318;45.818;15.964;2023-12-14T00:40:39;4.97;;;4.38;;
43996;SDS011;34318;45.818;15.964;2023-12-14T00:43:06;7.60;;;4.85;;
43996;SDS011;34318;45.818;15.964;2023-12-14T00:45:33;4.80;;;4.40;;
43996;SDS011;34318;45.818;15.964;2023-12-14T00:48:01;6.28;;;4.03;;
43996;SDS011;34318;45.818;15.964;2023-12-14T00:50:28;6.88;;;4.93;;
43996;SDS011;34318;45.818;15.964;2023-12-14T00:52:55;5.22;;;4.72;;
43996;SDS011;34318;45.818;15.964;2023-12-14T00:55:23;6.13;;;4.80;;
43996;SDS011;34318;45.818;15.964;2023-12-14T00:57:50;5.22;;;4.20;;
43996;SDS011;34318;45.818;15.964;2023-12-14T01:00:18;5.50;;;4.85;;
43996;SDS011;34318;45.818;15.964;2023-12-14T01:02:45;7.03;;;4.55;;
43996;SDS011;34318;45.818;15.964;2023-12-14T01:05:13;6.32;;;4.78;;
43996;SDS011;34318;45.818;15.964;2023-12-14T01:07:40;6.20;;;4.32;;
43996;SDS011;34318;45.818;15.964;2023-12-14T01:10:08;6.03;;;4.55;;
43996;SDS011;34318;45.818;15.964;2023-12-14T01:12:35;4.88;;;4.28;;
43996;SDS011;34318;45.818;15.964;2023-12-14T01:15:03;7.05;;;4.28;;
43996;SDS011;34318;45.818;15.964;2023-12-14T01:17:31;6.10;;;4.88;;
43996;SDS011;34318;45.818;15.964;2023-12-14T01:20:06;8.60;;;4.82;;
43996;SDS011;34318;45.818;15.964;2023-12-14T01:22:34;5.93;;;4.60;;
43996;SDS011;34318;45.818;15.964;2023-12-14T01:25:02;5.80;;;4.30;;
43996;SDS011;34318;45.818;15.964;2023-12-14T01:27:29;4.90;;;4.40;;
43996;SDS011;34318;45.818;15.964;2023-12-14T01:29:56;4.88;;;4.38;;
43996;SDS011;34318;45.818;15.964;2023-12-14T01:32:24;6.15;;;4.82;;
43996;SDS011;34318;45.818;15.964;2023-12-14T01:34:51;6.63;;;4.97;;
43996;SDS011;34318;45.818;15.964;2023-12-14T01:37:18;9.75;;;4.90;;
43996;SDS011;34318;45.818;15.964;2023-12-14T01:39:46;8.07;;;4.43;;
43996;SDS011;34318;45.818;15.964;2023-12-14T01:42:13;6.50;;;4.53;;
43996;SDS011;34318;45.818;15.964;2023-12-14T01:44:40;5.57;;;4.72;;
43996;SDS011;34318;45.818;15.964;2023-12-14T01:47:08;6.05;;;4.32;;
43996;SDS011;34318;45.818;15.964;2023-12-14T01:49:36;5.88;;;4.50;;
43996;SDS011;34318;45.818;15.964;2023-12-14T01:52:03;5.22;;;4.32;;
43996;SDS011;34318;45.818;15.964;2023-12-14T01:54:31;5.85;;;4.70;;
43996;SDS011;34318;45.818;15.964;2023-12-14T01:56:59;5.10;;;4.18;;
43996;SDS011;34318;45.818;15.964;2023-12-14T01:59:27;4.97;;;4.32;;
43996;SDS011;34318;45.818;15.964;2023-12-14T02:01:54;5.78;;;4.40;;
43996;SDS011;34318;45.818;15.964;2023-12-14T02:04:23;4.80;;;4.22;;
43996;SDS011;34318;45.818;15.964;2023-12-14T02:06:51;4.55;;;4.13;;
43996;SDS011;34318;45.818;15.964;2023-12-14T02:09:19;4.85;;;3.95;;
43996;SDS011;34318;45.818;15.964;2023-12-14T02:11:46;5.28;;;4.18;;
43996;SDS011;34318;45.818;15.964;2023-12-14T02:14:13;5.38;;;4.03;;
43996;SDS011;34318;45.818;15.964;2023-12-14T02:16:41;5.53;;;3.67;;
43996;SDS011;34318;45.818;15.964;2023-12-14T02:19:08;5.22;;;4.53;;
43996;SDS011;34318;45.818;15.964;2023-12-14T02:21:36;4.68;;;3.88;;
43996;SDS011;34318;45.818;15.964;2023-12-14T02:24:03;4.95;;;4.28;;
43996;SDS011;34318;45.818;15.964;2023-12-14T02:26:30;5.18;;;4.40;;
43996;SDS011;34318;45.818;15.964;2023-12-14T02:28:58;4.28;;;3.65;;
43996;SDS011;34318;45.818;15.964;2023-12-14T02:31:25;4.28;;;3.70;;
43996;SDS011;34318;45.818;15.964;2023-12-14T02:33:52;4.28;;;3.88;;
43996;SDS011;34318;45.818;15.964;2023-12-14T02:36:20;5.03;;;4.45;;
43996;SDS011;34318;45.818;15.964;2023-12-14T02:38:47;4.70;;;4.20;;
43996;SDS011;34318;45.818;15.964;2023-12-14T02:41:15;5.20;;;3.85;;
43996;SDS011;34318;45.818;15.964;2023-12-14T02:43:42;4.53;;;4.13;;
43996;SDS011;34318;45.818;15.964;2023-12-14T02:46:09;4.75;;;4.00;;
43996;SDS011;34318;45.818;15.964;2023-12-14T02:48:40;4.53;;;4.00;;
43996;SDS011;34318;45.818;15.964;2023-12-14T02:51:12;4.00;;;3.60;;
43996;SDS011;34318;45.818;15.964;2023-12-14T02:53:39;4.82;;;3.90;;
43996;SDS011;34318;45.818;15.964;2023-12-14T02:56:08;4.40;;;3.78;;
43996;SDS011;34318;45.818;15.964;2023-12-14T02:58:36;4.18;;;3.78;;
43996;SDS011;34318;45.818;15.964;2023-12-14T03:01:03;6.88;;;3.92;;
43996;SDS011;34318;45.818;15.964;2023-12-14T03:03:31;5.68;;;3.92;;
43996;SDS011;34318;45.818;15.964;2023-12-14T03:05:58;3.95;;;3.55;;
43996;SDS011;34318;45.818;15.964;2023-12-14T03:08:25;4.18;;;3.80;;
43996;SDS011;34318;45.818;15.964;2023-12-14T03:10:53;6.32;;;3.90;;
43996;SDS011;34318;45.818;15.964;2023-12-14T03:13:20;4.00;;;3.47;;
43996;SDS011;34318;45.818;15.964;2023-12-14T03:15:47;4.15;;;3.28;;
43996;SDS011;34318;45.818;15.964;2023-12-14T03:18:15;3.63;;;3.33;;
43996;SDS011;34318;45.818;15.964;2023-12-14T03:20:43;4.78;;;3.90;;
43996;SDS011;34318;45.818;15.964;2023-12-14T03:23:10;3.47;;;3.17;;
43996;SDS011;34318;45.818;15.964;2023-12-14T03:25:38;4.00;;;3.60;;
43996;SDS011;34318;45.818;15.964;2023-12-14T03:28:05;3.50;;;3.20;;
43996;SDS011;34318;45.818;15.964;2023-12-14T03:30:32;4.10;;;3.30;;
43996;SDS011;34318;45.818;15.964;2023-12-14T03:33:00;4.63;;;3.53;;
43996;SDS011;34318;45.818;15.964;2023-12-14T03:35:27;4.93;;;3.55;;
43996;SDS011;34318;45.818;15.964;2023-12-14T03:37:55;4.43;;;3.30;;
43996;SDS011;34318;45.818;15.964;2023-12-14T03:40:22;3.70;;;3.40;;
43996;SDS011;34318;45.818;15.964;2023-12-14T03:42:49;6.70;;;3.13;;
43996;SDS011;34318;45.818;15.964;2023-12-14T03:45:17;4.03;;;3.33;;
43996;SDS011;34318;45.818;15.964;2023-12-14T03:47:44;4.20;;;3.60;;
43996;SDS011;34318;45.818;15.964;2023-12-14T03:50:11;4.22;;;3.40;;
43996;SDS011;34318;45.818;15.964;2023-12-14T03:52:39;4.15;;;3.75;;
43996;SDS011;34318;45.818;15.964;2023-12-14T03:55:07;4.72;;;3.25;;
43996;SDS011;34318;45.818;15.964;2023-12-14T03:57:35;3.95;;;3.17;;
43996;SDS011;34318;45.818;15.964;2023-12-14T04:00:02;3.90;;;3.50;;
43996;SDS011;34318;45.818;15.964;2023-12-14T04:02:30;3.45;;;3.10;;
43996;SDS011;34318;45.818;15.964;2023-12-14T04:04:57;4.28;;;3.53;;
43996;SDS011;34318;45.818;15.964;2023-12-14T04:07:24;3.65;;;3.33;;
43996;SDS011;34318;45.818;15.964;2023-12-14T04:09:52;3.97;;;3.40;;
43996;SDS011;34318;45.818;15.964;2023-12-14T04:12:19;3.60;;;3.25;;
43996;SDS011;34318;45.818;15.964;2023-12-14T04:14:47;5.05;;;3.08;;
43996;SDS011;34318;45.818;15.964;2023-12-14T04:17:14;4.70;;;3.25;;
43996;SDS011;34318;45.818;15.964;2023-12-14T04:19:41;4.13;;;3.40;;
43996;SDS011;34318;45.818;15.964;2023-12-14T04:22:09;4.68;;;3.40;;
43996;SDS011;34318;45.818;15.964;2023-12-14T04:24:36;3.78;;;3.38;;
43996;SDS011;34318;45.818;15.964;2023-12-14T04:27:04;4.05;;;3.03;;
43996;SDS011;34318;45.818;15.964;2023-12-14T04:29:31;3.58;;;3.28;;
43996;SDS011;34318;45.818;15.964;2023-12-14T04:31:58;4.60;;;3.30;;
43996;SDS011;34318;45.818;15.964;2023-12-14T04:34:26;3.25;;;3.00;;
43996;SDS011;34318;45.818;15.964;2023-12-14T04:36:53;3.00;;;2.75;;
43996;SDS011;34318;45.818;15.964;2023-12-14T04:39:24;3.28;;;2.97;;
43996;SDS011;34318;45.818;15.964;2023-12-14T04:41:52;3.78;;;2.90;;
43996;SDS011;34318;45.818;15.964;2023-12-14T04:44:20;3.25;;;2.95;;
43996;SDS011;34318;45.818;15.964;2023-12-14T04:46:48;3.33;;;3.03;;
43996;SDS011;34318;45.818;15.964;2023-12-14T04:49:15;3.20;;;2.90;;
43996;SDS011;34318;45.818;15.964;2023-12-14T04:51:42;3.40;;;3.10;;
43996;SDS011;34318;45.818;15.964;2023-12-14T04:54:10;3.33;;;3.03;;
43996;SDS011;34318;45.818;15.964;2023-12-14T04:56:37;3.20;;;2.90;;
43996;SDS011;34318;45.818;15.964;2023-12-14T04:59:05;4.57;;;3.00;;
43996;SDS011;34318;45.818;15.964;2023-12-14T05:01:32;3.20;;;2.90;;
43996;SDS011;34318;45.818;15.964;2023-12-14T05:04:00;3.17;;;2.58;;
43996;SDS011;34318;45.818;15.964;2023-12-14T05:06:27;4.15;;;3.50;;
43996;SDS011;34318;45.818;15.964;2023-12-14T05:08:55;3.83;;;2.80;;
43996;SDS011;34318;45.818;15.964;2023-12-14T05:11:24;3.15;;;2.88;;
43996;SDS011;34318;45.818;15.964;2023-12-14T05:13:51;2.70;;;2.50;;
43996;SDS011;34318;45.818;15.964;2023-12-14T05:16:18;3.25;;;2.85;;
43996;SDS011;34318;45.818;15.964;2023-12-14T05:18:46;3.90;;;2.80;;
43996;SDS011;34318;45.818;15.964;2023-12-14T05:21:17;3.85;;;2.85;;
43996;SDS011;34318;45.818;15.964;2023-12-14T05:23:45;5.57;;;3.08;;
43996;SDS011;34318;45.818;15.964;2023-12-14T05:26:12;2.97;;;2.78;;
43996;SDS011;34318;45.818;15.964;2023-12-14T05:28:40;3.03;;;2.72;;
43996;SDS011;34318;45.818;15.964;2023-12-14T05:31:07;3.75;;;3.15;;
43996;SDS011;34318;45.818;15.964;2023-12-14T05:33:37;5.18;;;3.00;;
43996;SDS011;34318;45.818;15.964;2023-12-14T05:36:05;3.60;;;2.90;;
43996;SDS011;34318;45.818;15.964;2023-12-14T05:38:40;4.50;;;3.75;;
43996;SDS011;34318;45.818;15.964;2023-12-14T05:41:08;6.72;;;4.10;;
43996;SDS011;34318;45.818;15.964;2023-12-14T05:43:36;6.75;;;4.47;;
43996;SDS011;34318;45.818;15.964;2023-12-14T05:46:04;4.65;;;4.15;;
43996;SDS011;34318;45.818;15.964;2023-12-14T05:48:32;5.75;;;3.92;;
43996;SDS011;34318;45.818;15.964;2023-12-14T05:51:00;7.88;;;4.00;;
43996;SDS011;34318;45.818;15.964;2023-12-14T05:53:27;5.22;;;4.05;;
43996;SDS011;34318;45.818;15.964;2023-12-14T05:55:55;6.45;;;3.80;;
43996;SDS011;34318;45.818;15.964;2023-12-14T05:58:23;4.95;;;4.13;;
43996;SDS011;34318;45.818;15.964;2023-12-14T06:00:50;6.80;;;4.40;;
43996;SDS011;34318;45.818;15.964;2023-12-14T06:03:17;5.10;;;4.60;;
43996;SDS011;34318;45.818;15.964;2023-12-14T06:05:45;5.30;;;4.53;;
43996;SDS011;34318;45.818;15.964;2023-12-14T06:08:13;5.28;;;4.70;;
43996;SDS011;34318;45.818;15.964;2023-12-14T06:10:40;7.40;;;5.22;;
43996;SDS011;34318;45.818;15.964;2023-12-14T06:13:07;9.95;;;5.43;;
43996;SDS011;34318;45.818;15.964;2023-12-14T06:15:35;7.53;;;5.82;;
43996;SDS011;34318;45.818;15.964;2023-12-14T06:18:02;8.10;;;5.70;;
43996;SDS011;34318;45.818;15.964;2023-12-14T06:20:31;9.77;;;5.53;;
43996;SDS011;34318;45.818;15.964;2023-12-14T06:22:58;5.95;;;5.35;;
43996;SDS011;34318;45.818;15.964;2023-12-14T06:25:26;7.13;;;4.80;;
43996;SDS011;34318;45.818;15.964;2023-12-14T06:27:53;6.45;;;4.35;;
43996;SDS011;34318;45.818;15.964;2023-12-14T06:30:21;8.70;;;5.35;;
43996;SDS011;34318;45.818;15.964;2023-12-14T06:32:48;11.35;;;5.07;;
43996;SDS011;34318;45.818;15.964;2023-12-14T06:35:15;6.88;;;4.57;;
43996;SDS011;34318;45.818;15.964;2023-12-14T06:37:43;6.25;;;4.40;;
43996;SDS011;34318;45.818;15.964;2023-12-14T06:40:10;6.53;;;4.28;;
43996;SDS011;34318;45.818;15.964;2023-12-14T06:42:37;8.95;;;4.47;;
43996;SDS011;34318;45.818;15.964;2023-12-14T06:45:05;5.95;;;4.35;;
43996;SDS011;34318;45.818;15.964;2023-12-14T06:47:33;9.20;;;4.13;;
43996;SDS011;34318;45.818;15.964;2023-12-14T06:50:00;5.50;;;4.18;;
43996;SDS011;34318;45.818;15.964;2023-12-14T06:52:28;10.38;;;5.10;;
43996;SDS011;34318;45.818;15.964;2023-12-14T06:54:55;7.30;;;5.05;;
43996;SDS011;34318;45.818;15.964;2023-12-14T06:57:23;7.20;;;5.97;;
43996;SDS011;34318;45.818;15.964;2023-12-14T06:59:53;9.50;;;6.15;;
43996;SDS011;34318;45.818;15.964;2023-12-14T07:02:20;9.40;;;6.22;;
43996;SDS011;34318;45.818;15.964;2023-12-14T07:04:47;7.15;;;6.07;;
43996;SDS011;34318;45.818;15.964;2023-12-14T07:07:15;11.70;;;5.53;;
43996;SDS011;34318;45.818;15.964;2023-12-14T07:09:43;7.15;;;5.70;;
43996;SDS011;34318;45.818;15.964;2023-12-14T07:12:12;8.35;;;6.45;;
43996;SDS011;34318;45.818;15.964;2023-12-14T07:14:40;6.78;;;6.07;;
43996;SDS011;34318;45.818;15.964;2023-12-14T07:17:07;11.18;;;7.10;;
43996;SDS011;34318;45.818;15.964;2023-12-14T07:19:35;8.25;;;6.40;;
43996;SDS011;34318;45.818;15.964;2023-12-14T07:22:02;8.15;;;6.13;;
43996;SDS011;34318;45.818;15.964;2023-12-14T07:24:29;6.80;;;6.10;;
43996;SDS011;34318;45.818;15.964;2023-12-14T07:27:13;8.45;;;6.07;;
43996;SDS011;34318;45.818;15.964;2023-12-14T07:29:41;5.65;;;5.07;;
43996;SDS011;34318;45.818;15.964;2023-12-14T07:32:08;9.55;;;5.93;;
43996;SDS011;34318;45.818;15.964;2023-12-14T07:34:35;8.65;;;5.60;;
43996;SDS011;34318;45.818;15.964;2023-12-14T07:37:03;6.03;;;5.43;;
43996;SDS011;34318;45.818;15.964;2023-12-14T07:39:32;6.20;;;5.60;;
43996;SDS011;34318;45.818;15.964;2023-12-14T07:41:59;7.00;;;5.63;;
43996;SDS011;34318;45.818;15.964;2023-12-14T07:44:29;7.03;;;5.95;;
43996;SDS011;34318;45.818;15.964;2023-12-14T07:47:00;9.35;;;5.63;;
43996;SDS011;34318;45.818;15.964;2023-12-14T07:49:27;6.72;;;6.00;;
43996;SDS011;34318;45.818;15.964;2023-12-14T07:51:55;8.27;;;5.72;;
43996;SDS011;34318;45.818;15.964;2023-12-14T07:54:22;8.63;;;5.65;;
43996;SDS011;34318;45.818;15.964;2023-12-14T07:56:53;6.13;;;5.53;;
43996;SDS011;34318;45.818;15.964;2023-12-14T07:59:20;8.45;;;5.20;;
43996;SDS011;34318;45.818;15.964;2023-12-14T08:01:48;6.07;;;5.30;;
43996;SDS011;34318;45.818;15.964;2023-12-14T08:04:15;5.20;;;4.70;;
43996;SDS011;34318;45.818;15.964;2023-12-14T08:06:43;5.53;;;4.95;;
43996;SDS011;34318;45.818;15.964;2023-12-14T08:09:10;5.30;;;4.78;;
43996;SDS011;34318;45.818;15.964;2023-12-14T08:11:37;6.25;;;5.28;;
43996;SDS011;34318;45.818;15.964;2023-12-14T08:14:04;5.90;;;5.28;;
43996;SDS011;34318;45.818;15.964;2023-12-14T08:16:32;7.18;;;5.97;;
43996;SDS011;34318;45.818;15.964;2023-12-14T08:18:59;6.05;;;5.45;;
43996;SDS011;34318;45.818;15.964;2023-12-14T08:21:29;6.07;;;5.47;;
43996;SDS011;34318;45.818;15.964;2023-12-14T08:23:57;5.93;;;5.28;;
43996;SDS011;34318;45.818;15.964;2023-12-14T08:26:24;5.28;;;4.65;;
43996;SDS011;34318;45.818;15.964;2023-12-14T08:28:52;5.95;;;4.90;;
43996;SDS011;34318;45.818;15.964;2023-12-14T08:31:19;6.20;;;5.28;;
43996;SDS011;34318;45.818;15.964;2023-12-14T08:33:46;5.65;;;5.10;;
43996;SDS011;34318;45.818;15.964;2023-12-14T08:36:16;6.38;;;5.15;;
43996;SDS011;34318;45.818;15.964;2023-12-14T08:38:43;5.60;;;4.97;;
43996;SDS011;34318;45.818;15.964;2023-12-14T08:41:14;6.70;;;5.15;;
43996;SDS011;34318;45.818;15.964;2023-12-14T08:43:42;5.65;;;5.15;;
43996;SDS011;34318;45.818;15.964;2023-12-14T08:46:09;6.50;;;4.93;;
43996;SDS011;34318;45.818;15.964;2023-12-14T08:48:37;5.25;;;4.75;;
43996;SDS011;34318;45.818;15.964;2023-12-14T08:51:04;5.53;;;5.03;;
43996;SDS011;34318;45.818;15.964;2023-12-14T08:53:32;5.88;;;5.38;;
43996;SDS011;34318;45.818;15.964;2023-12-14T08:55:59;5.35;;;4.85;;
43996;SDS011;34318;45.818;15.964;2023-12-14T08:58:28;5.40;;;4.90;;
43996;SDS011;34318;45.818;15.964;2023-12-14T09:00:56;5.13;;;4.63;;
43996;SDS011;34318;45.818;15.964;2023-12-14T09:03:23;5.75;;;5.20;;
43996;SDS011;34318;45.818;15.964;2023-12-14T09:05:53;5.70;;;5.20;;
43996;SDS011;34318;45.818;15.964;2023-12-14T09:08:20;5.05;;;4.60;;
43996;SDS011;34318;45.818;15.964;2023-12-14T09:10:48;5.28;;;4.88;;
43996;SDS011;34318;45.818;15.964;2023-12-14T09:13:15;6.22;;;4.70;;
43996;SDS011;34318;45.818;15.964;2023-12-14T09:15:44;5.07;;;4.57;;
43996;SDS011;34318;45.818;15.964;2023-12-14T09:18:11;4.90;;;4.50;;
43996;SDS011;34318;45.818;15.964;2023-12-14T09:20:38;6.13;;;5.07;;
43996;SDS011;34318;45.818;15.964;2023-12-14T09:23:07;5.80;;;4.72;;
43996;SDS011;34318;45.818;15.964;2023-12-14T09:25:34;5.25;;;4.72;;
43996;SDS011;34318;45.818;15.964;2023-12-14T09:28:02;5.65;;;4.90;;
43996;SDS011;34318;45.818;15.964;2023-12-14T09:30:29;5.75;;;4.90;;
43996;SDS011;34318;45.818;15.964;2023-12-14T09:32:57;6.55;;;4.65;;
43996;SDS011;34318;45.818;15.964;2023-12-14T09:35:24;5.25;;;4.75;;
43996;SDS011;34318;45.818;15.964;2023-12-14T09:37:52;6.47;;;5.32;;
43996;SDS011;34318;45.818;15.964;2023-12-14T09:40:20;6.05;;;5.10;;
43996;SDS011;34318;45.818;15.964;2023-12-14T09:42:48;4.80;;;4.40;;
43996;SDS011;34318;45.818;15.964;2023-12-14T09:45:16;5.28;;;4.78;;
43996;SDS011;34318;45.818;15.964;2023-12-14T09:47:44;4.93;;;4.43;;
43996;SDS011;34318;45.818;15.964;2023-12-14T09:50:13;5.15;;;4.55;;
43996;SDS011;34318;45.818;15.964;2023-12-14T09:52:42;5.07;;;4.57;;
43996;SDS011;34318;45.818;15.964;2023-12-14T09:55:12;5.05;;;4.57;;
43996;SDS011;34318;45.818;15.964;2023-12-14T09:57:39;5.15;;;4.70;;
43996;SDS011;34318;45.818;15.964;2023-12-14T10:00:07;6.10;;;4.80;;
43996;SDS011;34318;45.818;15.964;2023-12-14T10:02:39;5.40;;;4.80;;
43996;SDS011;34318;45.818;15.964;2023-12-14T10:05:09;6.28;;;4.68;;
43996;SDS011;34318;45.818;15.964;2023-12-14T10:07:41;4.78;;;4.28;;
43996;SDS011;34318;45.818;15.964;2023-12-14T10:10:12;4.97;;;4.45;;
43996;SDS011;34318;45.818;15.964;2023-12-14T10:13:02;5.05;;;4.55;;
43996;SDS011;34318;45.818;15.964;2023-12-14T10:15:29;4.95;;;4.55;;
43996;SDS011;34318;45.818;15.964;2023-12-14T10:17:56;5.68;;;4.90;;
43996;SDS011;34318;45.818;15.964;2023-12-14T10:20:24;5.32;;;4.82;;
43996;SDS011;34318;45.818;15.964;2023-12-14T10:22:52;5.72;;;5.20;;
43996;SDS011;34318;45.818;15.964;2023-12-14T10:25:21;6.93;;;5.88;;
43996;SDS011;34318;45.818;15.964;2023-12-14T10:27:51;6.85;;;6.22;;
43996;SDS011;34318;45.818;15.964;2023-12-14T10:30:19;6.50;;;5.72;;
43996;SDS011;34318;45.818;15.964;2023-12-14T10:32:49;7.47;;;6.25;;
43996;SDS011;34318;45.818;15.964;2023-12-14T10:35:16;6.35;;;5.75;;
43996;SDS011;34318;45.818;15.964;2023-12-14T10:37:46;6.13;;;5.53;;
43996;SDS011;34318;45.818;15.964;2023-12-14T10:40:14;9.88;;;6.03;;
43996;SDS011;34318;45.818;15.964;2023-12-14T10:42:42;7.28;;;5.97;;
43996;SDS011;34318;45.818;15.964;2023-12-14T10:45:13;6.38;;;5.75;;
43996;SDS011;34318;45.818;15.964;2023-12-14T10:47:47;7.85;;;6.53;;
43996;SDS011;34318;45.818;15.964;2023-12-14T10:50:15;7.78;;;7.03;;
43996;SDS011;34318;45.818;15.964;2023-12-14T10:52:43;6.25;;;5.75;;
43996;SDS011;34318;45.818;15.964;2023-12-14T10:55:22;6.07;;;5.50;;
43996;SDS011;34318;45.818;15.964;2023-12-14T10:57:53;6.70;;;6.00;;
43996;SDS011;34318;45.818;15.964;2023-12-14T11:00:20;6.65;;;5.95;;
43996;SDS011;34318;45.818;15.964;2023-12-14T11:02:48;6.47;;;5.88;;
43996;SDS011;34318;45.818;15.964;2023-12-14T11:05:16;6.03;;;5.43;;
43996;SDS011;34318;45.818;15.964;2023-12-14T11:07:50;6.32;;;5.65;;
43996;SDS011;34318;45.818;15.964;2023-12-14T11:10:26;7.47;;;6.05;;
43996;SDS011;34318;45.818;15.964;2023-12-14T11:12:57;8.13;;;6.60;;
43996;SDS011;34318;45.818;15.964;2023-12-14T11:15:27;8.73;;;6.35;;
43996;SDS011;34318;45.818;15.964;2023-12-14T11:18:19;6.80;;;6.10;;
43996;SDS011;34318;45.818;15.964;2023-12-14T11:23:13;10.50;;;5.78;;
43996;SDS011;34318;45.818;15.964;2023-12-14T11:25:41;5.78;;;5.03;;
43996;SDS011;34318;45.818;15.964;2023-12-14T11:28:12;7.03;;;4.97;;
43996;SDS011;34318;45.818;15.964;2023-12-14T11:30:43;8.30;;;5.88;;
43996;SDS011;34318;45.818;15.964;2023-12-14T11:33:21;8.68;;;5.32;;
43996;SDS011;34318;45.818;15.964;2023-12-14T11:35:48;5.38;;;4.57;;
43996;SDS011;34318;45.818;15.964;2023-12-14T11:38:18;6.40;;;4.75;;
43996;SDS011;34318;45.818;15.964;2023-12-14T11:40:47;7.95;;;4.75;;
43996;SDS011;34318;45.818;15.964;2023-12-14T11:43:15;5.28;;;4.78;;
43996;SDS011;34318;45.818;15.964;2023-12-14T11:45:43;6.13;;;4.43;;
43996;SDS011;34318;45.818;15.964;2023-12-14T11:48:11;5.13;;;4.63;;
43996;SDS011;34318;45.818;15.964;2023-12-14T11:50:39;5.97;;;4.45;;
43996;SDS011;34318;45.818;15.964;2023-12-14T11:53:08;5.72;;;4.35;;
43996;SDS011;34318;45.818;15.964;2023-12-14T11:55:36;7.10;;;4.40;;
43996;SDS011;34318;45.818;15.964;2023-12-14T11:58:07;5.68;;;5.07;;
43996;SDS011;34318;45.818;15.964;2023-12-14T12:00:35;8.98;;;6.30;;
43996;SDS011;34318;45.818;15.964;2023-12-14T12:05:35;15.65;;;8.88;;
43996;SDS011;34318;45.818;15.964;2023-12-14T12:08:03;21.23;;;10.65;;
43996;SDS011;34318;45.818;15.964;2023-12-14T12:10:30;19.10;;;10.35;;
43996;SDS011;34318;45.818;15.964;2023-12-14T12:12:58;21.17;;;10.27;;
43996;SDS011;34318;45.818;15.964;2023-12-14T12:15:25;21.67;;;14.93;;
43996;SDS011;34318;45.818;15.964;2023-12-14T12:17:53;27.30;;;22.10;;
43996;SDS011;34318;45.818;15.964;2023-12-14T12:20:20;25.30;;;22.52;;
43996;SDS011;34318;45.818;15.964;2023-12-14T12:22:48;29.83;;;24.25;;
43996;SDS011;34318;45.818;15.964;2023-12-14T12:25:15;27.05;;;24.15;;
43996;SDS011;34318;45.818;15.964;2023-12-14T12:27:42;25.98;;;23.30;;
43996;SDS011;34318;45.818;15.964;2023-12-14T12:30:10;23.02;;;20.85;;
43996;SDS011;34318;45.818;15.964;2023-12-14T12:32:38;23.70;;;21.27;;
43996;SDS011;34318;45.818;15.964;2023-12-14T12:35:05;23.92;;;21.33;;
43996;SDS011;34318;45.818;15.964;2023-12-14T12:37:33;22.60;;;20.08;;
43996;SDS011;34318;45.818;15.964;2023-12-14T12:40:00;21.27;;;19.02;;
43996;SDS011;34318;45.818;15.964;2023-12-14T12:42:28;19.73;;;17.83;;
43996;SDS011;34318;45.818;15.964;2023-12-14T12:44:55;20.23;;;18.00;;
43996;SDS011;34318;45.818;15.964;2023-12-14T12:47:23;20.30;;;17.27;;
43996;SDS011;34318;45.818;15.964;2023-12-14T12:49:50;19.70;;;16.77;;
43996;SDS011;34318;45.818;15.964;2023-12-14T12:52:17;18.52;;;16.67;;
43996;SDS011;34318;45.818;15.964;2023-12-14T12:54:45;21.88;;;17.83;;
43996;SDS011;34318;45.818;15.964;2023-12-14T12:57:13;21.98;;;18.17;;
43996;SDS011;34318;45.818;15.964;2023-12-14T12:59:40;21.85;;;19.38;;
43996;SDS011;34318;45.818;15.964;2023-12-14T13:02:07;26.20;;;18.27;;
43996;SDS011;34318;45.818;15.964;2023-12-14T13:04:35;20.23;;;18.13;;
43996;SDS011;34318;45.818;15.964;2023-12-14T13:07:03;19.30;;;17.20;;
43996;SDS011;34318;45.818;15.964;2023-12-14T13:09:31;19.98;;;18.02;;
43996;SDS011;34318;45.818;15.964;2023-12-14T13:11:58;20.58;;;18.40;;
43996;SDS011;34318;45.818;15.964;2023-12-14T13:14:27;19.45;;;17.45;;
43996;SDS011;34318;45.818;15.964;2023-12-14T13:16:54;17.60;;;15.85;;
43996;SDS011;34318;45.818;15.964;2023-12-14T13:19:22;19.15;;;17.23;;
43996;SDS011;34318;45.818;15.964;2023-12-14T13:21:50;20.35;;;18.30;;
43996;SDS011;34318;45.818;15.964;2023-12-14T13:24:18;17.52;;;15.93;;
43996;SDS011;34318;45.818;15.964;2023-12-14T13:26:45;18.27;;;16.50;;
43996;SDS011;34318;45.818;15.964;2023-12-14T13:29:13;19.67;;;17.65;;
43996;SDS011;34318;45.818;15.964;2023-12-14T13:31:40;19.27;;;17.17;;
43996;SDS011;34318;45.818;15.964;2023-12-14T13:34:08;18.88;;;16.98;;
43996;SDS011;34318;45.818;15.964;2023-12-14T13:36:35;22.17;;;16.63;;
43996;SDS011;34318;45.818;15.964;2023-12-14T13:39:03;19.10;;;17.20;;
43996;SDS011;34318;45.818;15.964;2023-12-14T13:41:30;18.83;;;17.00;;
43996;SDS011;34318;45.818;15.964;2023-12-14T13:44:15;17.80;;;16.10;;
43996;SDS011;34318;45.818;15.964;2023-12-14T13:46:43;19.33;;;17.23;;
43996;SDS011;34318;45.818;15.964;2023-12-14T13:49:10;21.10;;;16.40;;
43996;SDS011;34318;45.818;15.964;2023-12-14T13:51:38;21.42;;;17.73;;
43996;SDS011;34318;45.818;15.964;2023-12-14T13:54:05;19.10;;;17.10;;
43996;SDS011;34318;45.818;15.964;2023-12-14T13:56:33;18.90;;;17.20;;
43996;SDS011;34318;45.818;15.964;2023-12-14T13:59:01;16.65;;;15.05;;
43996;SDS011;34318;45.818;15.964;2023-12-14T14:01:30;18.35;;;16.55;;
43996;SDS011;34318;45.818;15.964;2023-12-14T14:03:58;20.77;;;17.33;;
43996;SDS011;34318;45.818;15.964;2023-12-14T14:06:25;20.08;;;18.02;;
43996;SDS011;34318;45.818;15.964;2023-12-14T14:08:53;36.85;;;18.02;;
43996;SDS011;34318;45.818;15.964;2023-12-14T14:11:21;22.98;;;17.15;;
43996;SDS011;34318;45.818;15.964;2023-12-14T14:13:49;27.92;;;19.35;;
43996;SDS011;34318;45.818;15.964;2023-12-14T14:16:16;21.70;;;18.55;;
43996;SDS011;34318;45.818;15.964;2023-12-14T14:18:46;24.65;;;17.77;;
43996;SDS011;34318;45.818;15.964;2023-12-14T14:21:14;21.88;;;18.20;;
43996;SDS011;34318;45.818;15.964;2023-12-14T14:23:41;21.85;;;16.73;;
43996;SDS011;34318;45.818;15.964;2023-12-14T14:26:09;19.00;;;16.35;;
43996;SDS011;34318;45.818;15.964;2023-12-14T14:28:36;18.95;;;16.52;;
43996;SDS011;34318;45.818;15.964;2023-12-14T14:31:04;30.55;;;16.63;;
43996;SDS011;34318;45.818;15.964;2023-12-14T14:33:32;24.52;;;15.73;;
43996;SDS011;34318;45.818;15.964;2023-12-14T14:35:59;29.52;;;15.85;;
43996;SDS011;34318;45.818;15.964;2023-12-14T14:38:31;17.52;;;15.73;;